createdAt,value
2018-04-29T00:00:56.666Z,48.80
2018-04-29T00:03:24.191Z,46.22
2018-04-29T00:05:51.700Z,45.35
2018-04-29T00:08:19.210Z,53.60
2018-04-29T00:10:46.731Z,48.70
2018-04-29T00:13:14.370Z,50.55
2018-04-29T00:15:41.887Z,51.80
2018-04-29T00:18:09.414Z,47.92
2018-04-29T00:20:36.937Z,43.47
2018-04-29T00:23:05.211Z,45.70
2018-04-29T00:25:33.503Z,46.05
2018-04-29T00:28:01.023Z,51.65
2018-04-29T00:30:28.526Z,50.03
2018-04-29T00:32:56.045Z,54.30
2018-04-29T00:35:24.338Z,47.08
2018-04-29T00:37:52.627Z,50.22
2018-04-29T00:40:20.123Z,54.20
2018-04-29T00:42:47.639Z,58.17
2018-04-29T00:45:15.158Z,51.10
2018-04-29T00:47:42.659Z,54.63
2018-04-29T00:50:10.220Z,51.60
2018-04-29T00:52:37.850Z,52.80
2018-04-29T00:55:05.361Z,49.00
2018-04-29T00:57:32.859Z,55.53
2018-04-29T01:00:00.384Z,57.20
2018-04-29T01:02:27.911Z,53.38
2018-04-29T01:04:56.182Z,54.60
2018-04-29T01:07:24.459Z,54.75
2018-04-29T01:09:52.715Z,63.80
2018-04-29T01:12:20.217Z,58.45
2018-04-29T01:14:47.739Z,49.63
2018-04-29T01:17:16.019Z,59.40
2018-04-29T01:19:44.295Z,58.53
2018-04-29T01:22:12.583Z,61.85
2018-04-29T01:24:40.863Z,61.30
2018-04-29T01:27:08.363Z,64.37
2018-04-29T01:29:35.879Z,56.58
2018-04-29T01:32:04.143Z,57.90
2018-04-29T01:34:32.415Z,58.67
2018-04-29T01:37:00.715Z,61.35
2018-04-29T01:39:28.219Z,62.60
2018-04-29T01:41:55.714Z,61.88
2018-04-29T01:44:24.006Z,62.00
2018-04-29T01:46:51.514Z,64.05
2018-04-29T01:49:19.007Z,68.35
2018-04-29T01:51:47.279Z,64.43
2018-04-29T01:54:15.579Z,60.72
2018-04-29T01:56:43.099Z,59.90
2018-04-29T01:59:10.590Z,67.82
2018-04-29T02:01:38.851Z,71.82
2018-04-29T02:04:07.131Z,68.72
2018-04-29T02:06:35.403Z,62.88
2018-04-29T02:09:03.683Z,57.35
2018-04-29T02:11:31.963Z,62.53
2018-04-29T02:14:00.226Z,66.65
2018-04-29T02:16:27.736Z,64.35
2018-04-29T02:18:55.247Z,72.07
2018-04-29T02:21:23.521Z,65.25
2018-04-29T02:23:51.791Z,67.00
2018-04-29T02:26:19.311Z,67.15
2018-04-29T02:28:46.922Z,71.78
2018-04-29T02:31:15.269Z,71.60
2018-04-29T02:33:42.727Z,64.75
2018-04-29T02:36:10.315Z,71.90
2018-04-29T02:38:37.803Z,70.45
2018-04-29T02:41:06.104Z,69.70
2018-04-29T02:43:33.710Z,68.00
2018-04-29T02:46:01.980Z,68.50
2018-04-29T02:48:29.495Z,66.40
2018-04-29T02:50:57.080Z,70.85
2018-04-29T02:53:24.523Z,66.22
2018-04-29T02:55:52.065Z,69.87
2018-04-29T02:58:19.576Z,70.70
2018-04-29T03:00:47.068Z,71.45
2018-04-29T03:03:15.396Z,78.22
2018-04-29T03:05:43.720Z,67.72
2018-04-29T03:08:12.042Z,62.85
2018-04-29T03:10:39.552Z,69.55
2018-04-29T03:13:07.047Z,62.08
2018-04-29T03:15:34.551Z,63.35
2018-04-29T03:18:02.828Z,66.00
2018-04-29T03:20:31.091Z,57.38
2018-04-29T03:22:58.627Z,61.72
2018-04-29T03:25:26.192Z,63.50
2018-04-29T03:27:53.804Z,73.70
2018-04-29T03:30:21.340Z,58.95
2018-04-29T03:32:49.626Z,63.22
2018-04-29T03:35:17.892Z,63.38
2018-04-29T03:37:46.167Z,61.67
2018-04-29T03:40:13.684Z,58.80
2018-04-29T03:42:41.252Z,59.00
2018-04-29T03:45:08.763Z,58.00
2018-04-29T03:47:36.286Z,54.03
2018-04-29T03:50:03.803Z,58.13
2018-04-29T03:52:31.303Z,63.10
2018-04-29T03:54:58.819Z,53.38
2018-04-29T03:57:38.163Z,55.38
2018-04-29T04:00:17.636Z,51.37
2018-04-29T04:02:56.991Z,52.75
2018-04-29T04:05:24.526Z,52.30
2018-04-29T04:07:52.025Z,50.45
2018-04-29T04:10:19.515Z,54.88
2018-04-29T04:12:47.025Z,54.25
2018-04-29T04:15:15.298Z,58.97
2018-04-29T04:17:43.580Z,48.55
2018-04-29T04:20:11.854Z,58.10
2018-04-29T04:22:40.127Z,52.90
2018-04-29T04:25:08.439Z,48.80
2018-04-29T04:27:36.054Z,47.60
2018-04-29T04:30:03.567Z,52.50
2018-04-29T04:32:31.071Z,51.20
2018-04-29T04:34:58.591Z,50.08
2018-04-29T04:37:26.091Z,56.33
2018-04-29T04:39:53.602Z,56.05
2018-04-29T04:42:21.121Z,61.42
2018-04-29T04:44:49.395Z,56.95
2018-04-29T04:47:17.671Z,54.95
2018-04-29T04:49:45.951Z,62.88
2018-04-29T04:52:14.220Z,61.05
2018-04-29T04:54:41.734Z,63.55
2018-04-29T04:57:09.295Z,61.05
2018-04-29T04:59:36.799Z,58.42
2018-04-29T05:02:05.087Z,61.30
2018-04-29T05:04:33.411Z,67.68
2018-04-29T05:07:00.939Z,67.95
2018-04-29T05:09:28.450Z,71.37
2018-04-29T05:11:55.952Z,74.78
2018-04-29T05:14:24.327Z,68.47
2018-04-29T05:16:51.876Z,67.97
2018-04-29T05:19:19.406Z,67.25
2018-04-29T05:21:46.903Z,63.55
2018-04-29T05:24:14.415Z,58.08
2018-04-29T05:26:43.426Z,71.97
2018-04-29T05:29:10.991Z,63.60
2018-04-29T05:31:38.495Z,70.30
2018-04-29T05:34:05.992Z,71.55
2018-04-29T05:36:33.495Z,64.97
2018-04-29T05:39:01.291Z,63.28
2018-04-29T05:41:30.473Z,66.68
2018-04-29T05:43:57.979Z,60.92
2018-04-29T05:46:25.492Z,63.50
2018-04-29T05:48:52.993Z,60.70
2018-04-29T05:51:20.494Z,67.57
2018-04-29T05:53:47.995Z,72.22
2018-04-29T05:56:15.523Z,68.32
2018-04-29T05:58:44.699Z,70.25
2018-04-29T06:01:12.215Z,70.85
2018-04-29T06:03:39.714Z,72.65
2018-04-29T06:06:07.248Z,70.12
2018-04-29T06:08:35.537Z,77.43
2018-04-29T06:11:03.803Z,85.57
2018-04-29T06:13:31.312Z,73.95
2018-04-29T06:15:58.992Z,68.25
2018-04-29T06:18:26.502Z,69.72
2018-04-29T06:20:54.768Z,77.55
2018-04-29T06:23:23.181Z,83.18
2018-04-29T06:25:50.774Z,76.75
2018-04-29T06:28:18.307Z,78.05
2018-04-29T06:30:45.824Z,77.53
2018-04-29T06:33:14.166Z,79.78
2018-04-29T06:35:41.663Z,75.80
2018-04-29T06:38:09.950Z,80.75
2018-04-29T06:40:37.463Z,78.10
2018-04-29T06:43:04.959Z,86.85
2018-04-29T06:45:33.271Z,74.00
2018-04-29T06:48:00.771Z,81.28
2018-04-29T06:50:28.267Z,76.53
2018-04-29T06:52:56.534Z,77.28
2018-04-29T06:55:24.807Z,77.75
2018-04-29T06:57:53.135Z,75.97
2018-04-29T07:00:21.419Z,86.43
2018-04-29T07:02:48.955Z,77.15
2018-04-29T07:05:16.460Z,79.07
2018-04-29T07:07:43.971Z,74.32
2018-04-29T07:10:11.488Z,79.18
2018-04-29T07:12:39.764Z,86.00
2018-04-29T07:15:07.310Z,92.85
2018-04-29T07:17:34.823Z,75.00
2018-04-29T07:20:02.372Z,78.95
2018-04-29T07:22:30.618Z,73.05
2018-04-29T07:24:58.903Z,76.05
2018-04-29T07:27:26.428Z,85.43
2018-04-29T07:29:53.939Z,82.57
2018-04-29T07:32:21.451Z,80.15
2018-04-29T07:34:48.964Z,77.95
2018-04-29T07:37:16.488Z,87.55
2018-04-29T07:39:44.845Z,82.00
2018-04-29T07:42:12.479Z,74.37
2018-04-29T07:44:39.986Z,82.28
2018-04-29T07:47:08.303Z,88.80
2018-04-29T07:49:35.851Z,76.28
2018-04-29T07:52:03.437Z,74.53
2018-04-29T07:54:31.667Z,81.03
2018-04-29T07:56:59.939Z,84.07
2018-04-29T07:59:28.431Z,74.90
2018-04-29T08:01:55.997Z,78.22
2018-04-29T08:04:23.611Z,82.07
2018-04-29T08:06:51.301Z,77.55
2018-04-29T08:09:18.769Z,84.45
2018-04-29T08:11:47.034Z,84.53
2018-04-29T08:14:14.547Z,77.90
2018-04-29T08:16:42.193Z,86.00
2018-04-29T08:19:09.717Z,80.60
2018-04-29T08:21:37.991Z,81.03
2018-04-29T08:24:05.581Z,85.80
2018-04-29T08:26:33.090Z,85.53
2018-04-29T08:29:00.605Z,83.93
2018-04-29T08:31:28.165Z,81.93
2018-04-29T08:33:55.674Z,81.60
2018-04-29T08:36:23.197Z,92.30
2018-04-29T08:38:50.741Z,74.93
2018-04-29T08:41:18.251Z,80.80
2018-04-29T08:43:46.599Z,72.03
2018-04-29T08:46:14.120Z,73.40
2018-04-29T08:48:41.661Z,75.95
2018-04-29T08:53:43.160Z,80.97
2018-04-29T08:56:10.679Z,80.18
2018-04-29T08:58:38.971Z,76.70
2018-04-29T09:01:07.259Z,70.57
2018-04-29T09:03:34.932Z,69.50
2018-04-29T09:06:02.383Z,67.78
2018-04-29T09:08:29.916Z,69.37
2018-04-29T09:10:58.204Z,72.57
2018-04-29T09:13:25.723Z,73.28
2018-04-29T09:15:53.250Z,74.82
2018-04-29T09:20:54.721Z,67.30
2018-04-29T09:23:22.236Z,67.53
2018-04-29T09:25:50.518Z,75.55
2018-04-29T09:28:18.052Z,75.87
2018-04-29T09:30:45.565Z,77.05
2018-04-29T09:33:13.074Z,69.82
2018-04-29T09:35:40.647Z,75.78
2018-04-29T09:38:08.934Z,75.15
2018-04-29T09:40:36.443Z,75.82
2018-04-29T09:43:03.969Z,79.60
2018-04-29T09:45:31.487Z,76.45
2018-04-29T09:47:58.995Z,70.20
2018-04-29T09:50:26.539Z,71.57
2018-04-29T09:52:54.060Z,87.15
2018-04-29T09:55:21.582Z,74.05
2018-04-29T09:57:49.145Z,70.95
2018-04-29T10:00:16.659Z,76.65
2018-04-29T10:02:47.785Z,69.78
2018-04-29T10:05:15.321Z,78.10
2018-04-29T10:07:42.840Z,75.07
2018-04-29T10:10:10.379Z,66.93
2018-04-29T10:12:39.048Z,74.00
2018-04-29T10:15:07.327Z,71.03
2018-04-29T10:17:35.611Z,75.10
2018-04-29T10:20:03.907Z,64.18
2018-04-29T10:22:31.419Z,69.55
2018-04-29T10:24:58.923Z,69.75
2018-04-29T10:27:26.449Z,68.07
2018-04-29T10:29:54.010Z,67.18
2018-04-29T10:32:21.578Z,74.68
2018-04-29T10:34:49.059Z,70.47
2018-04-29T10:37:16.574Z,71.72
2018-04-29T10:39:44.109Z,72.75
2018-04-29T10:42:11.663Z,63.72
2018-04-29T10:44:39.186Z,65.70
2018-04-29T10:47:07.458Z,63.80
2018-04-29T10:49:35.758Z,60.92
2018-04-29T10:52:03.262Z,56.92
2018-04-29T10:54:30.811Z,60.28
2018-04-29T10:56:58.357Z,56.25
2018-04-29T10:59:25.875Z,51.08
2018-04-29T11:01:53.383Z,55.78
2018-04-29T11:04:20.976Z,54.17
2018-04-29T11:06:49.271Z,45.22
2018-04-29T11:09:16.795Z,49.65
2018-04-29T11:11:44.407Z,45.47
2018-04-29T11:14:11.929Z,42.62
2018-04-29T11:16:39.447Z,46.43
2018-04-29T11:19:07.744Z,43.10
2018-04-29T11:21:35.292Z,44.40
2018-04-29T11:24:02.811Z,40.65
2018-04-29T11:26:30.341Z,41.47
2018-04-29T11:28:58.664Z,39.78
2018-04-29T11:31:26.175Z,46.88
2018-04-29T11:33:53.753Z,45.67
2018-04-29T11:36:21.279Z,44.85
2018-04-29T11:38:48.796Z,42.95
2018-04-29T11:41:16.347Z,41.28
2018-04-29T11:43:43.867Z,45.08
2018-04-29T11:46:11.363Z,43.83
2018-04-29T11:48:38.916Z,38.78
2018-04-29T11:51:06.427Z,37.90
2018-04-29T11:53:33.943Z,42.42
2018-04-29T11:56:01.478Z,33.60
2018-04-29T11:58:29.771Z,33.10
2018-04-29T12:00:57.295Z,31.55
2018-04-29T12:03:24.819Z,39.58
2018-04-29T12:05:52.337Z,32.10
2018-04-29T12:08:20.615Z,30.30
2018-04-29T12:10:48.163Z,37.55
2018-04-29T12:13:16.451Z,41.57
2018-04-29T12:15:43.996Z,35.90
2018-04-29T12:18:12.298Z,36.30
2018-04-29T12:20:39.808Z,35.77
2018-04-29T12:23:08.107Z,37.20
2018-04-29T12:25:36.420Z,36.63
2018-04-29T12:28:03.919Z,35.60
2018-04-29T12:30:31.426Z,33.67
2018-04-29T12:32:58.948Z,35.00
2018-04-29T12:35:26.471Z,33.03
2018-04-29T12:37:54.052Z,34.13
2018-04-29T12:40:22.851Z,36.57
2018-04-29T12:42:50.366Z,34.63
2018-04-29T12:47:51.738Z,37.30
2018-04-29T12:50:19.342Z,38.05
2018-04-29T12:52:46.873Z,35.92
2018-04-29T12:55:14.788Z,34.25
2018-04-29T12:57:43.083Z,33.17
2018-04-29T13:00:10.619Z,32.70
2018-04-29T13:02:38.147Z,36.70
2018-04-29T13:05:05.684Z,34.17
2018-04-29T13:07:33.192Z,38.27
2018-04-29T13:10:01.537Z,38.50
2018-04-29T13:12:29.093Z,35.47
2018-04-29T13:14:56.628Z,34.95
2018-04-29T13:17:24.144Z,38.17
2018-04-29T13:19:52.430Z,40.70
2018-04-29T13:22:20.712Z,37.73
2018-04-29T13:24:48.986Z,38.95
2018-04-29T13:27:17.294Z,38.55
2018-04-29T13:29:44.799Z,42.70
2018-04-29T13:32:12.297Z,39.53
2018-04-29T13:34:39.836Z,41.50
2018-04-29T13:37:08.135Z,41.83
2018-04-29T13:39:35.650Z,39.85
2018-04-29T13:42:03.181Z,38.75
2018-04-29T13:44:30.706Z,40.10
2018-04-29T13:46:58.221Z,37.90
2018-04-29T13:49:25.848Z,37.03
2018-04-29T13:51:53.350Z,36.43
2018-04-29T13:54:20.875Z,40.73
2018-04-29T13:56:48.379Z,40.50
2018-04-29T13:59:16.671Z,39.07
2018-04-29T14:01:44.256Z,40.23
2018-04-29T14:04:11.755Z,40.50
2018-04-29T14:06:39.279Z,44.30
2018-04-29T14:09:06.808Z,38.93
2018-04-29T14:11:35.071Z,35.97
2018-04-29T14:14:03.361Z,36.53
2018-04-29T14:16:30.908Z,38.97
2018-04-29T14:18:59.260Z,45.60
2018-04-29T14:21:26.802Z,38.80
2018-04-29T14:23:54.351Z,38.67
2018-04-29T14:26:21.863Z,41.27
2018-04-29T14:28:50.156Z,39.60
2018-04-29T14:31:17.720Z,39.67
2018-04-29T14:33:45.986Z,40.77
2018-04-29T14:36:14.250Z,40.20
2018-04-29T14:38:42.555Z,42.20
2018-04-29T14:41:10.089Z,43.83
2018-04-29T14:43:38.369Z,43.23
2018-04-29T14:46:06.662Z,41.13
2018-04-29T14:48:34.159Z,44.40
2018-04-29T14:51:01.668Z,40.03
2018-04-29T14:53:29.973Z,40.63
2018-04-29T14:55:58.044Z,44.00
2018-04-29T14:58:25.543Z,40.00
2018-04-29T15:00:53.062Z,42.30
2018-04-29T15:03:20.587Z,40.05
2018-04-29T15:05:48.867Z,43.27
2018-04-29T15:08:17.197Z,45.10
2018-04-29T15:10:44.699Z,41.33
2018-04-29T15:13:12.971Z,41.10
2018-04-29T15:15:41.286Z,46.13
2018-04-29T15:21:04.691Z,41.77
2018-04-29T15:23:32.979Z,43.47
2018-04-29T15:26:00.506Z,43.50
2018-04-29T15:28:28.059Z,40.73
2018-04-29T15:30:55.563Z,44.87
2018-04-29T15:33:23.067Z,43.73
2018-04-29T15:35:50.708Z,50.10
2018-04-29T15:38:19.091Z,39.73
2018-04-29T15:40:47.367Z,42.40
2018-04-29T15:43:15.656Z,45.53
2018-04-29T15:45:43.166Z,47.93
2018-04-29T15:48:10.670Z,49.13
2018-04-29T15:50:38.219Z,44.37
2018-04-29T15:53:06.527Z,41.37
2018-04-29T15:55:34.061Z,41.47
2018-04-29T15:58:01.597Z,43.80
2018-04-29T16:00:29.103Z,41.50
2018-04-29T16:02:56.610Z,47.53
2018-04-29T16:05:25.059Z,43.80
2018-04-29T16:07:53.184Z,46.63
2018-04-29T16:10:21.459Z,46.03
2018-04-29T16:12:49.773Z,44.00
2018-04-29T16:15:17.274Z,43.10
2018-04-29T16:17:44.784Z,44.40
2018-04-29T16:20:12.300Z,47.97
2018-04-29T16:22:40.566Z,41.20
2018-04-29T16:25:08.098Z,47.47
2018-04-29T16:27:36.455Z,46.70
2018-04-29T16:30:05.507Z,44.90
2018-04-29T16:32:33.791Z,47.40
2018-04-29T16:35:03.365Z,47.67
2018-04-29T16:37:31.791Z,48.50
2018-04-29T16:39:59.335Z,49.13
2018-04-29T16:42:26.863Z,57.17
2018-04-29T16:44:55.187Z,51.33
2018-04-29T16:47:22.687Z,46.80
2018-04-29T16:49:50.217Z,52.63
2018-04-29T16:52:17.766Z,49.50
2018-04-29T16:54:45.274Z,43.97
2018-04-29T16:57:12.779Z,48.23
2018-04-29T16:59:40.328Z,48.77
2018-04-29T17:02:08.603Z,52.93
2018-04-29T17:04:36.870Z,46.27
2018-04-29T17:07:04.391Z,45.87
2018-04-29T17:09:33.346Z,45.63
2018-04-29T17:12:02.465Z,51.50
2018-04-29T17:14:31.468Z,48.27
2018-04-29T17:16:59.030Z,48.43
2018-04-29T17:19:26.612Z,50.15
2018-04-29T17:21:54.155Z,48.40
2018-04-29T17:24:21.869Z,53.17
2018-04-29T17:26:50.135Z,51.40
2018-04-29T17:29:17.699Z,46.47
2018-04-29T17:31:46.586Z,46.33
2018-04-29T17:34:14.119Z,48.80
2018-04-29T17:36:42.662Z,54.70
2018-04-29T17:39:10.153Z,53.10
2018-04-29T17:41:37.719Z,55.05
2018-04-29T17:44:06.277Z,53.20
2018-04-29T17:46:33.762Z,59.35
2018-04-29T17:49:01.303Z,56.13
2018-04-29T17:51:28.847Z,68.00
2018-04-29T17:53:56.368Z,58.42
2018-04-29T17:56:24.680Z,76.45
2018-04-29T17:58:52.199Z,64.10
2018-04-29T18:01:20.495Z,62.92
2018-04-29T18:03:48.038Z,65.47
2018-04-29T18:06:16.312Z,73.27
2018-04-29T18:08:44.643Z,67.50
2018-04-29T18:11:12.188Z,84.47
2018-04-29T18:13:39.714Z,78.70
2018-04-29T18:16:08.003Z,87.10
2018-04-29T18:18:35.520Z,71.17
2018-04-29T18:21:03.067Z,70.60
2018-04-29T18:23:30.619Z,72.05
2018-04-29T18:25:58.190Z,73.10
2018-04-29T18:28:25.730Z,80.50
2018-04-29T18:30:53.239Z,85.03
2018-04-29T18:33:20.767Z,79.18
2018-04-29T18:35:48.296Z,75.17
2018-04-29T18:38:15.811Z,78.25
2018-04-29T18:40:45.172Z,84.05
2018-04-29T18:43:13.271Z,85.10
2018-04-29T18:45:41.644Z,83.25
2018-04-29T18:48:10.672Z,85.95
2018-04-29T18:50:39.684Z,108.47
2018-04-29T18:53:08.673Z,113.25
2018-04-29T18:55:36.453Z,98.37
2018-04-29T18:58:03.975Z,93.37
2018-04-29T19:00:33.043Z,81.93
2018-04-29T19:03:02.762Z,79.78
2018-04-29T19:05:42.013Z,82.50
2018-04-29T19:08:13.123Z,72.45
2018-04-29T19:10:42.167Z,68.80
2018-04-29T19:13:10.219Z,69.62
2018-04-29T19:15:37.906Z,72.65
2018-04-29T19:18:06.481Z,71.35
2018-04-29T19:20:35.466Z,65.15
2018-04-29T19:23:06.499Z,71.65
2018-04-29T19:25:35.968Z,74.32
2018-04-29T19:28:04.233Z,65.82
2018-04-29T19:30:35.315Z,72.28
2018-04-29T19:33:07.934Z,65.03
2018-04-29T19:35:39.146Z,69.62
2018-04-29T19:38:09.077Z,75.10
2018-04-29T19:40:40.640Z,67.53
2018-04-29T19:43:08.794Z,77.03
2018-04-29T19:45:40.423Z,63.58
2018-04-29T19:48:09.587Z,59.45
2018-04-29T19:50:39.947Z,56.85
2018-04-29T19:53:08.675Z,47.92
2018-04-29T19:55:36.348Z,49.55
2018-04-29T19:58:04.093Z,47.50
2018-04-29T20:00:32.464Z,54.50
2018-04-29T20:03:01.957Z,46.75
2018-04-29T20:05:32.737Z,47.65
2018-04-29T20:08:00.668Z,45.60
2018-04-29T20:10:28.189Z,43.63
2018-04-29T20:12:56.883Z,45.20
2018-04-29T20:15:27.423Z,46.25
2018-04-29T20:17:56.559Z,36.03
2018-04-29T20:20:39.275Z,40.90
2018-04-29T20:23:07.382Z,39.67
2018-04-29T20:25:37.492Z,32.60
2018-04-29T20:28:05.925Z,43.17
2018-04-29T20:30:35.988Z,34.88
2018-04-29T20:33:07.131Z,38.72
2018-04-29T20:35:35.293Z,37.83
2018-04-29T20:38:03.475Z,37.05
2018-04-29T20:40:32.430Z,36.53
2018-04-29T20:43:02.121Z,37.42
2018-04-29T20:45:32.082Z,38.08
2018-04-29T20:48:00.198Z,36.33
2018-04-29T20:50:27.975Z,39.20
2018-04-29T20:52:56.082Z,41.90
2018-04-29T20:55:24.978Z,40.30
2018-04-29T20:57:53.355Z,45.03
2018-04-29T21:00:23.304Z,35.92
2018-04-29T21:02:51.625Z,44.50
2018-04-29T21:05:20.431Z,47.95
2018-04-29T21:07:47.972Z,43.05
2018-04-29T21:10:17.172Z,45.10
2018-04-29T21:12:45.472Z,39.75
2018-04-29T21:15:13.017Z,39.90
2018-04-29T21:17:42.055Z,40.47
2018-04-29T21:20:10.459Z,48.47
2018-04-29T21:22:37.978Z,49.35
2018-04-29T21:25:05.524Z,47.10
2018-04-29T21:27:33.158Z,47.97
2018-04-29T21:30:00.594Z,44.03
2018-04-29T21:32:28.125Z,42.78
2018-04-29T21:34:55.637Z,42.22
2018-04-29T21:37:23.235Z,38.30
2018-04-29T21:39:51.311Z,43.35
2018-04-29T21:42:18.823Z,43.47
2018-04-29T21:44:47.123Z,44.55
2018-04-29T21:47:14.640Z,44.25
2018-04-29T21:49:42.157Z,38.50
2018-04-29T21:52:10.743Z,41.50
2018-04-29T21:54:38.259Z,41.10
2018-04-29T21:57:06.727Z,41.50
2018-04-29T21:59:34.275Z,41.90
2018-04-29T22:02:02.360Z,40.78
2018-04-29T22:04:30.475Z,42.40
2018-04-29T22:06:58.534Z,40.03
2018-04-29T22:09:26.051Z,44.40
2018-04-29T22:11:53.608Z,46.50
2018-04-29T22:14:21.178Z,47.40
2018-04-29T22:16:49.019Z,47.50
2018-04-29T22:19:16.584Z,45.90
2018-04-29T22:21:44.131Z,38.78
2018-04-29T22:24:11.860Z,40.73
2018-04-29T22:26:39.602Z,41.20
2018-04-29T22:29:08.775Z,44.20
2018-04-29T22:31:38.208Z,43.58
2018-04-29T22:34:06.559Z,38.00
2018-04-29T22:36:34.405Z,38.88
2018-04-29T22:39:03.295Z,40.33
2018-04-29T22:41:30.803Z,35.53
2018-04-29T22:44:01.528Z,39.55
2018-04-29T22:46:29.812Z,44.28
2018-04-29T22:49:00.114Z,43.45
2018-04-29T22:51:30.059Z,38.60
2018-04-29T22:53:58.447Z,37.38
2018-04-29T22:56:26.119Z,39.83
2018-04-29T22:58:54.841Z,38.67
2018-04-29T23:01:24.316Z,37.60
2018-04-29T23:04:00.376Z,41.10
2018-04-29T23:06:30.375Z,45.08
2018-04-29T23:09:02.768Z,43.37
2018-04-29T23:11:31.254Z,40.17
2018-04-29T23:13:59.855Z,44.20
2018-04-29T23:16:29.044Z,35.73
2018-04-29T23:18:58.857Z,48.55
2018-04-29T23:21:26.963Z,64.80
2018-04-29T23:23:54.862Z,63.75
2018-04-29T23:26:23.572Z,57.67
2018-04-29T23:28:54.983Z,59.50
2018-04-29T23:31:25.138Z,53.65
2018-04-29T23:33:53.175Z,66.27
2018-04-29T23:36:22.399Z,50.40
2018-04-29T23:38:49.939Z,55.33
2018-04-29T23:41:17.818Z,52.17
2018-04-29T23:43:46.710Z,48.13
2018-04-29T23:46:15.427Z,43.60
2018-04-29T23:48:44.955Z,58.87
2018-04-29T23:51:15.823Z,55.70
2018-04-29T23:53:43.840Z,64.27
2018-04-29T23:56:12.355Z,43.07
2018-04-29T23:58:42.441Z,44.25
